createdAt,value
2023-05-16T00:00:45.289Z,8.9491
2023-05-16T00:04:50.456Z,8.9828
2023-05-16T00:06:51.992Z,9.0513
2023-05-16T00:07:54.079Z,9.0741
2023-05-16T00:08:55.929Z,9.0302
2023-05-16T00:09:56.605Z,9.0263
2023-05-16T00:10:57.199Z,9.0258
2023-05-16T00:11:58.425Z,9.0454
2023-05-16T00:13:00.005Z,9.0161
2023-05-16T00:14:00.356Z,9.0486
2023-05-16T00:15:01.894Z,9.0739
2023-05-16T00:16:01.920Z,9.0840
2023-05-16T00:17:04.000Z,9.1632
2023-05-16T00:18:05.400Z,9.1765
2023-05-16T00:19:06.901Z,9.1922
2023-05-16T00:20:06.456Z,9.1945
2023-05-16T00:21:07.100Z,9.2370
2023-05-16T00:22:08.883Z,9.2520
2023-05-16T00:23:10.632Z,9.3147
2023-05-16T00:24:12.531Z,9.3477
2023-05-16T00:25:14.628Z,9.3336
2023-05-16T00:26:16.410Z,9.3368
2023-05-16T00:27:19.069Z,9.2950
2023-05-16T00:28:20.385Z,9.2626
2023-05-16T00:29:21.541Z,9.3715
2023-05-16T00:30:24.155Z,9.3064
2023-05-16T00:31:24.722Z,9.3274
2023-05-16T00:32:25.971Z,9.3015
2023-05-16T00:33:27.052Z,9.2668
2023-05-16T00:34:27.440Z,9.3554
2023-05-16T00:35:28.736Z,9.3946
2023-05-16T00:36:30.777Z,9.4016
2023-05-16T00:37:32.800Z,9.4166
2023-05-16T00:38:33.847Z,9.4450
2023-05-16T00:42:36.500Z,9.4574
2023-05-16T00:43:38.800Z,9.4232
2023-05-16T00:44:40.346Z,9.3527
2023-05-16T00:45:41.025Z,9.3149
2023-05-16T00:50:47.059Z,9.2959
2023-05-16T00:51:47.492Z,9.2569
2023-05-16T00:52:47.608Z,9.2418
2023-05-16T00:53:49.698Z,9.2661
2023-05-16T00:54:51.076Z,9.2546
2023-05-16T00:55:52.477Z,9.2821
2023-05-16T00:56:52.601Z,9.2918
2023-05-16T00:57:54.049Z,9.3180
2023-05-16T00:58:55.113Z,9.3548
2023-05-16T00:59:56.473Z,9.3452
2023-05-16T01:00:56.704Z,9.3080
2023-05-16T01:01:58.068Z,9.2977
2023-05-16T01:02:59.668Z,9.2655
2023-05-16T01:04:01.695Z,9.2594
2023-05-16T01:05:03.035Z,9.2422
2023-05-16T01:06:04.139Z,9.2714
2023-05-16T01:07:06.683Z,9.2431
2023-05-16T01:08:07.305Z,9.2546
2023-05-16T01:16:15.065Z,9.4066
2023-05-16T01:17:16.587Z,9.5100
2023-05-16T01:24:24.370Z,9.4453
2023-05-16T01:25:25.907Z,9.4564
2023-05-16T01:26:26.151Z,9.4616
2023-05-16T01:27:27.437Z,9.4679
2023-05-16T01:30:31.238Z,9.4836
2023-05-16T01:31:31.530Z,9.4660
2023-05-16T01:33:34.681Z,9.4706
2023-05-16T01:34:37.007Z,9.4760
2023-05-16T01:35:38.025Z,9.4555
2023-05-16T01:36:38.677Z,9.4329
2023-05-16T01:37:40.225Z,9.4103
2023-05-16T01:38:41.867Z,9.3753
2023-05-16T01:40:45.149Z,9.4108
2023-05-16T01:41:46.496Z,9.3737
2023-05-16T01:42:47.900Z,9.3734
2023-05-16T01:43:50.444Z,9.4352
2023-05-16T01:44:50.606Z,9.5830
2023-05-16T01:45:51.825Z,9.6258
2023-05-16T01:46:52.692Z,9.6540
2023-05-16T01:47:53.931Z,9.6371
2023-05-16T01:48:55.726Z,9.6713
2023-05-16T01:49:55.895Z,9.7026
2023-05-16T01:51:56.662Z,9.6178
2023-05-16T01:52:59.542Z,9.6023
2023-05-16T01:53:59.665Z,9.5815
2023-05-16T01:55:00.188Z,9.5316
2023-05-16T01:56:00.771Z,9.5351
2023-05-16T02:01:04.852Z,9.5134
2023-05-16T02:04:06.963Z,9.5134
2023-05-16T02:11:12.874Z,9.6048
2023-05-16T02:12:13.584Z,9.5716
2023-05-16T02:13:14.455Z,9.5558
2023-05-16T02:14:16.687Z,9.5921
2023-05-16T02:15:18.086Z,9.5934
2023-05-16T02:16:19.624Z,9.5496
2023-05-16T02:17:20.141Z,9.5570
2023-05-16T02:18:22.099Z,9.6028
2023-05-16T02:19:23.660Z,9.5653
2023-05-16T02:21:24.151Z,9.5518
2023-05-16T02:22:26.376Z,9.5566
2023-05-16T02:23:28.183Z,9.5534
2023-05-16T02:24:29.188Z,9.5967
2023-05-16T02:25:29.504Z,9.6091
2023-05-16T02:26:30.473Z,9.6142
2023-05-16T02:27:32.034Z,9.5762
2023-05-16T02:35:36.200Z,9.5464
2023-05-16T02:36:36.810Z,9.5598
2023-05-16T02:37:38.471Z,9.5458
2023-05-16T02:38:39.985Z,9.5480
2023-05-16T02:39:40.899Z,9.5503
2023-05-16T02:40:42.889Z,9.5287
2023-05-16T02:42:44.900Z,9.5073
2023-05-16T02:43:47.177Z,9.4850
2023-05-16T02:44:46.485Z,9.4878
2023-05-16T02:45:48.639Z,9.4779
2023-05-16T02:46:49.132Z,9.5164
2023-05-16T02:47:49.834Z,9.4893
2023-05-16T02:48:50.383Z,9.5007
2023-05-16T02:49:51.328Z,9.4909
2023-05-16T02:50:52.614Z,9.5393
2023-05-16T02:51:53.994Z,9.5059
2023-05-16T02:52:54.478Z,9.4827
2023-05-16T02:53:56.396Z,9.4887
2023-05-16T02:55:09.780Z,9.4940
2023-05-16T02:55:58.242Z,9.4848
2023-05-16T02:56:59.988Z,9.4546
2023-05-16T02:58:00.339Z,9.4241
2023-05-16T02:59:01.380Z,9.4139
2023-05-16T03:07:09.807Z,9.4014
2023-05-16T03:08:10.357Z,9.4009
2023-05-16T03:09:12.064Z,9.4091
2023-05-16T03:10:13.578Z,9.4031
2023-05-16T03:11:15.074Z,9.4112
2023-05-16T03:12:15.860Z,9.4169
2023-05-16T03:13:18.505Z,9.4060
2023-05-16T03:14:19.477Z,9.3950
2023-05-16T03:15:21.928Z,9.3888
2023-05-16T03:16:23.531Z,9.3854
2023-05-16T03:17:25.077Z,9.3994
2023-05-16T03:18:28.017Z,9.4074
2023-05-16T03:21:31.208Z,9.3668
2023-05-16T03:24:34.466Z,9.3712
2023-05-16T03:25:35.356Z,9.3910
2023-05-16T03:27:39.530Z,9.3640
2023-05-16T03:28:41.133Z,9.3840
2023-05-16T03:29:41.251Z,9.3683
2023-05-16T03:30:42.751Z,9.3652
2023-05-16T03:31:43.652Z,9.3721
2023-05-16T03:32:44.319Z,9.3695
2023-05-16T03:33:47.145Z,9.3692
2023-05-16T03:35:47.693Z,9.3351
2023-05-16T03:36:48.800Z,9.3068
2023-05-16T03:37:48.952Z,9.3109
2023-05-16T03:38:49.929Z,9.3348
2023-05-16T03:49:58.060Z,9.2649
2023-05-16T03:50:59.743Z,9.2799
2023-05-16T03:52:01.200Z,9.2667
2023-05-16T03:53:01.959Z,9.2596
2023-05-16T03:54:03.703Z,9.2506
2023-05-16T03:57:04.774Z,9.2761
2023-05-16T03:58:05.464Z,9.2756
2023-05-16T03:59:08.069Z,9.2679
2023-05-16T04:00:08.814Z,9.2503
2023-05-16T04:01:09.998Z,9.2619
2023-05-16T04:02:12.309Z,9.2599
2023-05-16T04:03:12.317Z,9.2733
2023-05-16T04:04:14.317Z,9.2558
2023-05-16T04:05:16.263Z,9.2615
2023-05-16T04:06:18.980Z,9.2718
2023-05-16T04:07:19.625Z,9.2764
2023-05-16T04:08:21.040Z,9.2537
2023-05-16T04:09:23.729Z,9.2506
2023-05-16T04:10:24.372Z,9.2512
2023-05-16T04:13:28.212Z,9.2656
2023-05-16T04:14:29.169Z,9.2898
2023-05-16T04:15:29.361Z,9.2963
2023-05-16T04:16:31.307Z,9.2871
2023-05-16T04:17:31.801Z,9.2926
2023-05-16T04:18:33.180Z,9.2944
2023-05-16T04:19:33.548Z,9.3096
2023-05-16T04:20:33.607Z,9.3228
2023-05-16T04:21:35.722Z,9.3414
2023-05-16T04:22:36.416Z,9.3427
2023-05-16T04:23:37.162Z,9.3500
2023-05-16T04:24:37.609Z,9.3720
2023-05-16T04:29:42.023Z,9.3836
2023-05-16T04:35:46.637Z,9.4234
2023-05-16T04:37:47.991Z,9.4022
2023-05-16T04:38:49.230Z,9.4584
2023-05-16T04:39:50.509Z,9.4481
2023-05-16T04:40:52.369Z,9.4278
2023-05-16T04:41:54.134Z,9.4433
2023-05-16T04:42:56.077Z,9.4875
2023-05-16T04:43:56.392Z,9.4818
2023-05-16T04:44:57.745Z,9.4741
2023-05-16T04:48:00.136Z,9.5201
2023-05-16T04:54:07.368Z,9.6362
2023-05-16T04:55:07.552Z,9.6466
2023-05-16T04:58:09.058Z,9.7673
2023-05-16T04:59:09.289Z,9.7619
2023-05-16T05:00:09.849Z,9.6847
2023-05-16T05:01:10.790Z,9.6683
2023-05-16T05:02:12.263Z,9.6922
2023-05-16T05:03:12.600Z,9.6795
2023-05-16T05:04:15.195Z,9.6594
2023-05-16T05:05:16.333Z,9.7324
2023-05-16T05:06:16.441Z,9.7452
2023-05-16T05:07:18.240Z,9.7703
2023-05-16T05:08:20.448Z,9.7968
2023-05-16T05:09:21.234Z,9.7323
2023-05-16T05:11:22.431Z,9.7903
2023-05-16T05:12:23.928Z,9.7481
2023-05-16T05:13:25.403Z,9.8091
2023-05-16T05:18:31.914Z,9.7615
2023-05-16T05:19:32.052Z,9.8686
2023-05-16T05:20:33.628Z,9.8243
2023-05-16T05:21:34.571Z,9.8309
2023-05-16T05:22:36.282Z,9.8144
2023-05-16T05:23:37.531Z,9.8709
2023-05-16T05:24:39.019Z,9.8927
2023-05-16T05:25:40.185Z,9.9092
2023-05-16T05:26:41.942Z,9.9842
2023-05-16T05:27:43.865Z,10.0054
2023-05-16T05:28:53.914Z,9.9699
2023-05-16T05:29:46.850Z,10.0209
2023-05-16T05:30:49.081Z,10.1059
2023-05-16T05:31:49.525Z,10.0222
2023-05-16T05:32:52.402Z,10.1124
2023-05-16T05:33:54.484Z,10.1439
2023-05-16T05:34:54.996Z,10.0625
2023-05-16T05:35:55.799Z,10.0343
2023-05-16T05:42:00.380Z,10.3455
2023-05-16T05:44:02.082Z,10.3589
2023-05-16T05:45:02.638Z,10.3680
2023-05-16T05:46:03.467Z,10.3178
2023-05-16T05:47:05.344Z,10.4077
2023-05-16T05:49:05.523Z,10.3761
2023-05-16T05:50:06.728Z,10.2774
2023-05-16T05:51:08.585Z,10.3022
2023-05-16T05:52:08.841Z,10.4385
2023-05-16T05:53:11.076Z,10.4120
2023-05-16T05:54:13.315Z,10.5173
2023-05-16T05:55:13.611Z,10.5247
2023-05-16T05:56:14.154Z,10.5431
2023-05-16T05:57:14.904Z,10.4629
2023-05-16T05:58:17.884Z,10.4196
2023-05-16T05:59:19.512Z,10.3677
2023-05-16T06:00:20.753Z,10.3715
2023-05-16T06:01:21.133Z,10.4050
2023-05-16T06:02:22.661Z,10.3543
2023-05-16T06:03:24.877Z,10.3492
2023-05-16T06:04:25.322Z,10.2948
2023-05-16T06:05:26.289Z,10.3839
2023-05-16T06:06:28.411Z,10.5297
2023-05-16T06:07:29.496Z,10.5536
2023-05-16T06:17:37.026Z,10.2940
2023-05-16T06:18:37.552Z,10.3404
2023-05-16T06:19:38.370Z,10.2589
2023-05-16T06:20:40.335Z,10.2658
2023-05-16T06:21:41.894Z,10.3257
2023-05-16T06:22:42.014Z,10.4293
2023-05-16T06:23:42.336Z,10.2742
2023-05-16T06:24:43.702Z,10.3605
2023-05-16T06:25:45.106Z,10.3884
2023-05-16T06:26:46.266Z,10.2647
2023-05-16T06:27:48.380Z,10.3487
2023-05-16T06:28:49.901Z,10.3048
2023-05-16T06:29:51.836Z,10.1954
2023-05-16T06:30:52.766Z,10.2683
2023-05-16T06:31:55.102Z,10.2027
2023-05-16T06:32:57.165Z,10.2162
2023-05-16T06:33:59.161Z,10.2903
2023-05-16T06:34:59.221Z,10.2701
2023-05-16T06:35:59.462Z,10.3382
2023-05-16T06:37:01.352Z,10.3648
2023-05-16T06:38:01.571Z,10.4317
2023-05-16T06:39:03.231Z,10.3972
2023-05-16T06:40:04.999Z,10.4019
2023-05-16T06:41:05.331Z,10.4802
2023-05-16T06:42:07.446Z,10.4924
2023-05-16T06:43:09.358Z,10.5780
2023-05-16T06:44:10.983Z,10.5230
2023-05-16T06:45:12.820Z,10.7290
2023-05-16T06:46:12.946Z,10.6011
2023-05-16T06:47:14.330Z,10.5436
2023-05-16T06:48:15.418Z,10.7587
2023-05-16T06:49:15.570Z,10.7408
2023-05-16T06:50:17.184Z,10.7804
2023-05-16T06:51:18.122Z,10.5739
2023-05-16T06:52:19.980Z,10.6817
2023-05-16T06:53:20.063Z,10.7462
2023-05-16T06:54:22.546Z,10.5233
2023-05-16T06:56:24.598Z,10.4865
2023-05-16T06:57:25.343Z,10.5443
2023-05-16T06:58:26.883Z,10.5516
2023-05-16T07:07:34.233Z,10.5974
2023-05-16T07:09:36.673Z,10.4795
2023-05-16T07:15:41.785Z,10.6975
2023-05-16T07:17:43.801Z,10.9161
2023-05-16T07:18:45.572Z,11.0790
2023-05-16T07:20:47.503Z,11.0370
2023-05-16T07:21:48.833Z,11.2413
2023-05-16T07:22:50.349Z,11.3436
2023-05-16T07:23:51.325Z,11.2355
2023-05-16T07:24:53.246Z,11.1855
2023-05-16T07:28:57.671Z,11.6108
2023-05-16T07:29:59.684Z,11.4022
2023-05-16T07:31:02.280Z,11.1379
2023-05-16T07:32:03.181Z,11.1221
2023-05-16T07:33:03.826Z,11.2733
2023-05-16T07:34:04.543Z,11.3488
2023-05-16T07:35:04.757Z,11.1487
2023-05-16T07:36:16.205Z,11.1334
2023-05-16T07:37:08.904Z,11.1982
2023-05-16T07:38:10.283Z,11.0557
2023-05-16T07:39:11.780Z,11.1519
2023-05-16T07:40:13.552Z,11.1019
2023-05-16T07:41:14.820Z,11.2712
2023-05-16T07:42:15.841Z,11.1139
2023-05-16T07:43:17.632Z,10.9476
2023-05-16T07:44:19.846Z,11.2938
2023-05-16T07:45:21.346Z,11.3811
2023-05-16T07:53:28.372Z,13.6611
2023-05-16T07:54:29.735Z,13.3263
2023-05-16T07:55:29.889Z,13.3922
2023-05-16T07:56:31.968Z,13.4189
2023-05-16T07:57:33.595Z,12.9939
2023-05-16T07:58:33.895Z,12.6650
2023-05-16T07:59:34.553Z,13.1085
2023-05-16T08:00:36.322Z,13.1288
2023-05-16T08:02:35.979Z,12.3764
2023-05-16T08:03:37.517Z,12.9286
2023-05-16T08:04:39.057Z,12.6740
2023-05-16T08:05:41.984Z,11.9582
2023-05-16T08:06:42.415Z,12.4476
2023-05-16T08:07:43.734Z,12.2254
2023-05-16T08:08:45.413Z,12.4176
2023-05-16T08:09:47.673Z,12.2016
2023-05-16T08:10:49.419Z,12.1512
2023-05-16T08:11:49.455Z,12.1623
2023-05-16T08:12:50.651Z,12.2511
2023-05-16T08:13:51.816Z,12.1744
2023-05-16T08:16:55.213Z,12.2736
2023-05-16T08:17:55.710Z,12.3497
2023-05-16T08:19:58.071Z,12.5541
2023-05-16T08:20:59.841Z,12.4875
2023-05-16T08:22:00.992Z,12.0933
2023-05-16T08:23:01.569Z,12.2048
2023-05-16T08:24:02.066Z,12.1217
2023-05-16T08:25:02.133Z,12.0390
2023-05-16T08:26:03.267Z,11.8916
2023-05-16T08:27:04.369Z,11.9622
2023-05-16T08:28:05.925Z,12.0746
2023-05-16T08:29:07.371Z,12.3221
2023-05-16T08:30:08.958Z,12.1138
2023-05-16T08:32:09.928Z,12.0322
2023-05-16T08:34:10.877Z,12.1780
2023-05-16T08:35:11.174Z,12.2948
2023-05-16T08:37:12.308Z,12.0855
2023-05-16T08:42:14.975Z,12.0785
2023-05-16T08:43:15.821Z,12.1358
2023-05-16T08:46:19.077Z,11.8851
2023-05-16T08:47:19.715Z,11.9723
2023-05-16T08:48:21.357Z,11.9897
2023-05-16T08:49:23.118Z,12.3271
2023-05-16T08:50:23.370Z,12.4505
2023-05-16T08:51:25.293Z,12.4366
2023-05-16T08:52:25.908Z,12.4088
2023-05-16T08:53:28.151Z,12.4560
2023-05-16T08:54:29.524Z,12.2316
2023-05-16T08:55:31.404Z,12.2877
2023-05-16T08:56:31.790Z,12.1178
2023-05-16T08:57:31.817Z,12.2614
2023-05-16T08:58:32.112Z,12.1020
2023-05-16T08:59:32.295Z,12.3778
2023-05-16T09:00:34.255Z,12.6346
2023-05-16T09:01:36.943Z,12.7413
2023-05-16T09:02:37.683Z,12.7423
2023-05-16T09:03:38.780Z,12.9074
2023-05-16T09:04:39.835Z,12.8622
2023-05-16T09:05:41.610Z,12.6198
2023-05-16T09:06:42.654Z,12.3423
2023-05-16T09:07:43.417Z,12.4156
2023-05-16T09:08:45.114Z,12.3744
2023-05-16T09:09:47.575Z,12.5215
2023-05-16T09:10:49.688Z,12.9241
2023-05-16T09:11:50.757Z,12.6667
2023-05-16T09:12:52.901Z,12.6950
2023-05-16T09:13:53.824Z,12.5553
2023-05-16T09:15:54.878Z,12.3425
2023-05-16T09:16:55.752Z,12.3998
2023-05-16T09:17:55.969Z,12.3064
2023-05-16T09:18:57.763Z,12.1959
2023-05-16T09:19:57.912Z,12.4490
2023-05-16T09:20:58.958Z,12.6570
2023-05-16T09:22:00.616Z,12.8679
2023-05-16T09:23:01.142Z,13.0060
2023-05-16T09:24:02.958Z,12.8421
2023-05-16T09:25:04.778Z,12.3754
2023-05-16T09:26:05.023Z,12.7120
2023-05-16T09:43:24.066Z,11.7171
2023-05-16T09:44:25.774Z,11.6522
2023-05-16T09:45:26.527Z,11.4531
2023-05-16T09:46:27.657Z,11.2303
2023-05-16T09:47:28.204Z,11.1487
2023-05-16T09:48:28.467Z,11.0412
2023-05-16T09:49:30.299Z,10.9596
2023-05-16T09:50:32.176Z,10.8588
2023-05-16T09:51:32.485Z,10.9053
2023-05-16T09:52:34.235Z,10.7995
2023-05-16T09:53:35.914Z,10.7254
2023-05-16T09:54:36.791Z,10.7592
2023-05-16T09:55:37.812Z,10.7929
2023-05-16T09:56:38.255Z,10.6800
2023-05-16T09:57:40.463Z,10.5592
2023-05-16T09:58:41.748Z,10.6282
2023-05-16T10:07:57.492Z,10.7764
2023-05-16T10:08:57.597Z,10.7782
2023-05-16T10:09:59.674Z,10.4822
2023-05-16T10:11:02.123Z,10.4830
2023-05-16T10:14:06.000Z,10.7166
2023-05-16T10:15:04.152Z,10.8085
2023-05-16T10:17:06.594Z,10.9650
2023-05-16T10:18:08.686Z,11.0480
2023-05-16T10:23:13.560Z,10.8138
2023-05-16T10:25:15.389Z,10.9307
2023-05-16T10:26:16.558Z,10.9028
2023-05-16T10:27:19.103Z,10.8677
2023-05-16T10:28:17.326Z,10.9402
2023-05-16T10:30:22.126Z,10.8413
2023-05-16T10:33:23.462Z,10.4460
2023-05-16T10:34:24.837Z,10.5336
2023-05-16T10:35:27.677Z,10.5546
2023-05-16T10:36:27.633Z,10.4783
2023-05-16T10:37:29.880Z,10.5892
2023-05-16T10:38:31.948Z,10.5136
2023-05-16T10:39:32.762Z,10.5422
2023-05-16T10:40:33.434Z,10.5604
2023-05-16T10:41:34.044Z,10.3013
2023-05-16T10:43:35.305Z,10.2577
2023-05-16T10:44:37.473Z,10.1930
2023-05-16T10:45:39.050Z,10.1706
2023-05-16T10:54:47.883Z,10.0652
2023-05-16T10:55:48.201Z,10.0655
2023-05-16T10:56:49.298Z,10.0930
2023-05-16T10:57:50.111Z,10.1523
2023-05-16T10:58:52.068Z,10.2069
2023-05-16T10:59:53.385Z,10.2969
2023-05-16T11:00:53.471Z,10.4217
2023-05-16T11:01:55.601Z,10.4700
2023-05-16T11:02:57.945Z,10.4544
2023-05-16T11:07:29.795Z,10.6456
2023-05-16T11:08:30.218Z,10.6538
2023-05-16T11:09:32.064Z,10.6846
2023-05-16T11:10:33.779Z,10.7194
2023-05-16T11:11:34.896Z,10.6107
2023-05-16T11:12:37.084Z,10.6715
2023-05-16T11:13:39.235Z,10.6089
2023-05-16T11:14:40.037Z,10.5831
2023-05-16T11:15:41.924Z,10.5369
2023-05-16T11:16:43.499Z,10.5316
2023-05-16T11:17:46.096Z,10.5935
2023-05-16T11:18:46.059Z,10.6287
2023-05-16T11:19:47.949Z,10.5787
2023-05-16T11:20:50.072Z,10.4611
2023-05-16T11:21:52.066Z,10.5655
2023-05-16T11:22:52.367Z,10.5304
2023-05-16T11:23:53.118Z,10.4599
2023-05-16T11:24:54.869Z,10.5502
2023-05-16T11:25:55.206Z,10.6215
2023-05-16T11:26:57.422Z,10.5334
2023-05-16T11:27:59.324Z,10.4258
2023-05-16T11:28:59.717Z,10.3153
2023-05-16T11:30:02.065Z,10.2504
2023-05-16T11:31:01.763Z,10.2390
2023-05-16T11:32:02.639Z,10.2466
2023-05-16T11:33:03.409Z,10.2525
2023-05-16T11:34:04.027Z,10.2781
2023-05-16T11:35:04.825Z,10.3206
2023-05-16T11:36:14.519Z,10.3216
2023-05-16T11:37:08.083Z,10.2189
2023-05-16T11:38:10.206Z,10.2259
2023-05-16T11:39:11.530Z,10.1512
2023-05-16T11:40:13.009Z,10.1743
2023-05-16T11:41:14.538Z,10.2499
2023-05-16T11:42:14.631Z,10.1434
2023-05-16T11:43:16.489Z,10.1387
2023-05-16T11:44:17.212Z,10.2035
2023-05-16T11:45:18.874Z,10.3461
2023-05-16T11:47:22.805Z,10.2380
2023-05-16T11:48:35.825Z,10.3183
2023-05-16T11:49:26.535Z,10.1776
2023-05-16T11:50:28.786Z,10.1670
2023-05-16T11:51:30.239Z,10.1003
2023-05-16T11:52:30.702Z,10.1331
2023-05-16T11:53:30.834Z,10.1751
2023-05-16T11:55:41.946Z,10.2540
2023-05-16T11:56:35.072Z,10.3221
2023-05-16T11:57:36.702Z,10.3239
2023-05-16T11:58:38.476Z,10.2897
2023-05-16T11:59:40.027Z,10.2384
2023-05-16T12:00:40.094Z,10.1967
2023-05-16T12:01:42.023Z,10.2390
2023-05-16T12:02:44.012Z,10.2275
2023-05-16T12:04:47.871Z,10.3110
2023-05-16T12:05:48.666Z,10.3322
2023-05-16T12:06:50.421Z,10.3774
2023-05-16T12:07:51.640Z,10.3624
2023-05-16T12:08:53.608Z,10.3241
2023-05-16T12:09:55.794Z,10.3651
2023-05-16T12:10:57.897Z,10.3412
2023-05-16T12:11:58.134Z,10.3486
2023-05-16T12:12:59.638Z,10.2542
2023-05-16T12:14:00.998Z,10.2467
2023-05-16T12:15:02.634Z,10.2223
2023-05-16T12:17:05.101Z,10.4090
2023-05-16T12:18:06.772Z,10.4044
2023-05-16T12:19:08.947Z,10.3950
2023-05-16T12:20:08.990Z,10.5944
2023-05-16T12:21:11.058Z,10.6520
2023-05-16T12:22:12.421Z,10.6492
2023-05-16T12:23:14.359Z,10.6583
2023-05-16T12:24:15.406Z,10.5163
2023-05-16T12:25:16.158Z,10.5884
2023-05-16T12:26:16.650Z,10.6074
2023-05-16T12:27:16.945Z,10.5641
2023-05-16T12:28:16.982Z,10.5594
2023-05-16T12:29:18.001Z,10.6502
2023-05-16T12:30:20.226Z,10.6283
2023-05-16T12:31:31.125Z,10.5401
2023-05-16T12:32:22.051Z,10.5144
2023-05-16T12:33:22.795Z,10.5421
2023-05-16T12:34:24.683Z,10.5455
2023-05-16T12:35:25.912Z,10.4872
2023-05-16T12:36:27.060Z,10.4793
2023-05-16T12:37:28.521Z,10.4188
2023-05-16T12:38:30.741Z,10.3921
2023-05-16T12:39:34.391Z,10.3715
2023-05-16T12:40:32.557Z,10.3890
2023-05-16T12:41:33.451Z,10.3571
2023-05-16T12:42:35.473Z,10.2609
2023-05-16T12:43:35.654Z,10.3340
2023-05-16T12:44:36.438Z,10.4183
2023-05-16T12:45:37.954Z,10.3304
2023-05-16T12:46:39.148Z,10.4262
2023-05-16T12:47:40.883Z,10.3656
2023-05-16T12:48:42.329Z,10.4683
2023-05-16T12:49:44.185Z,10.3366
2023-05-16T12:50:45.931Z,10.4656
2023-05-16T12:51:48.090Z,10.3570
2023-05-16T12:52:49.995Z,10.3146
2023-05-16T12:54:08.616Z,10.3179
2023-05-16T12:54:53.531Z,10.3029
2023-05-16T12:55:55.702Z,10.2386
2023-05-16T12:56:56.585Z,10.1880
2023-05-16T12:57:58.889Z,10.0706
2023-05-16T12:59:00.213Z,10.1384
2023-05-16T13:00:02.293Z,10.0754
2023-05-16T13:02:02.507Z,10.1779
2023-05-16T13:03:03.834Z,10.1252
2023-05-16T13:04:06.285Z,10.2566
2023-05-16T13:05:06.129Z,10.2716
2023-05-16T13:06:08.169Z,10.2332
2023-05-16T13:07:08.301Z,10.3411
2023-05-16T13:08:09.573Z,10.2457
2023-05-16T13:09:10.308Z,10.3519
2023-05-16T13:10:12.289Z,10.2441
2023-05-16T13:11:13.466Z,10.3297
2023-05-16T13:14:17.650Z,10.3180
2023-05-16T13:15:18.192Z,10.3859
2023-05-16T13:16:19.532Z,10.2773
2023-05-16T13:17:19.560Z,10.3182
2023-05-16T13:19:21.971Z,10.3854
2023-05-16T13:20:22.753Z,10.3366
2023-05-16T13:22:24.378Z,10.7488
2023-05-16T13:23:26.088Z,10.7399
2023-05-16T13:24:28.312Z,10.7198
2023-05-16T13:25:30.439Z,10.6194
2023-05-16T13:26:31.009Z,10.7052
2023-05-16T13:27:31.089Z,10.7045
2023-05-16T13:28:32.938Z,10.7614
2023-05-16T13:29:34.908Z,10.7475
2023-05-16T13:30:36.938Z,10.8547
2023-05-16T13:31:37.640Z,10.8749
2023-05-16T13:32:39.792Z,11.0234
2023-05-16T13:33:40.127Z,10.9122
2023-05-16T13:34:42.149Z,10.9067
2023-05-16T13:35:43.635Z,11.0545
2023-05-16T13:36:53.779Z,10.9078
2023-05-16T13:47:25.406Z,11.2683
2023-05-16T13:48:27.278Z,11.1822
2023-05-16T13:49:28.896Z,11.0915
2023-05-16T13:50:33.363Z,11.0729
2023-05-16T13:51:29.155Z,11.0613
2023-05-16T13:52:31.237Z,11.0128
2023-05-16T13:53:33.127Z,11.0448
2023-05-16T13:54:33.553Z,10.9575
2023-05-16T13:55:34.727Z,10.8312
2023-05-16T13:56:36.128Z,10.7404
2023-05-16T13:57:38.241Z,10.8201
2023-05-16T14:00:05.739Z,10.9574
2023-05-16T14:00:45.176Z,10.8507
2023-05-16T14:01:41.856Z,10.8593
2023-05-16T14:02:42.276Z,10.8405
2023-05-16T14:03:43.446Z,10.8518
2023-05-16T14:04:46.759Z,10.9234
2023-05-16T14:05:47.374Z,10.8551
2023-05-16T14:06:47.907Z,10.8713
2023-05-16T14:07:49.015Z,10.8051
2023-05-16T14:08:50.163Z,10.7299
2023-05-16T14:09:51.015Z,10.6552
2023-05-16T14:10:53.011Z,10.7393
2023-05-16T14:11:53.794Z,10.7619
2023-05-16T14:12:54.971Z,10.7803
2023-05-16T14:13:56.314Z,10.7878
2023-05-16T14:14:57.368Z,10.8672
2023-05-16T14:15:58.713Z,10.9704
2023-05-16T14:18:00.942Z,10.8563
2023-05-16T14:19:03.198Z,10.9253
2023-05-16T14:20:03.188Z,10.8802
2023-05-16T14:21:04.864Z,10.7477
2023-05-16T14:22:05.308Z,10.8858
2023-05-16T14:23:07.142Z,10.9370
2023-05-16T14:26:12.057Z,11.0305
2023-05-16T14:27:12.313Z,10.9486
2023-05-16T14:28:13.932Z,10.9182
2023-05-16T14:29:15.466Z,11.0914
2023-05-16T14:30:16.888Z,11.0030
2023-05-16T14:31:18.945Z,10.9492
2023-05-16T14:32:19.069Z,10.9591
2023-05-16T14:34:21.310Z,10.8720
2023-05-16T14:35:21.462Z,10.8794
2023-05-16T14:36:22.007Z,10.9064
2023-05-16T14:37:22.782Z,10.9371
2023-05-16T14:38:24.816Z,10.8966
2023-05-16T14:39:26.550Z,10.9511
2023-05-16T14:40:28.292Z,10.8635
2023-05-16T14:41:28.969Z,10.8856
2023-05-16T14:42:29.286Z,10.9350
2023-05-16T14:43:30.656Z,10.8300
2023-05-16T14:44:30.993Z,10.8336
2023-05-16T14:45:32.924Z,10.8259
2023-05-16T14:46:34.797Z,10.7647
2023-05-16T14:47:35.193Z,10.7569
2023-05-16T14:48:35.661Z,10.6971
2023-05-16T14:49:36.111Z,10.6603
2023-05-16T14:50:38.156Z,10.6874
2023-05-16T14:51:39.549Z,10.6896
2023-05-16T14:52:41.645Z,10.6034
2023-05-16T14:53:43.322Z,10.6102
2023-05-16T14:54:43.199Z,10.6123
2023-05-16T14:55:43.486Z,10.6420
2023-05-16T14:58:47.525Z,10.5594
2023-05-16T14:59:47.887Z,10.5706
2023-05-16T15:00:49.431Z,10.5808
2023-05-16T15:01:51.333Z,10.5807
2023-05-16T15:02:52.474Z,10.4217
2023-05-16T15:04:56.460Z,10.5112
2023-05-16T15:05:58.157Z,10.5423
2023-05-16T15:06:58.821Z,10.5434
2023-05-16T15:07:58.897Z,10.6234
2023-05-16T15:08:59.734Z,10.6175
2023-05-16T15:09:59.752Z,10.6062
2023-05-16T15:10:59.802Z,10.5812
2023-05-16T15:12:01.847Z,10.4931
2023-05-16T15:13:03.794Z,10.5782
2023-05-16T15:14:05.686Z,10.4512
2023-05-16T15:15:05.948Z,10.5339
2023-05-16T15:16:07.921Z,10.5510
2023-05-16T15:17:09.834Z,10.5001
2023-05-16T15:18:10.284Z,10.5007
2023-05-16T15:19:10.861Z,10.6088
2023-05-16T15:20:11.177Z,10.5417
2023-05-16T15:21:13.143Z,10.5147
2023-05-16T15:22:13.822Z,10.5893
2023-05-16T15:23:14.953Z,10.5124
2023-05-16T15:24:15.836Z,10.6941
2023-05-16T15:25:16.397Z,10.7660
2023-05-16T15:26:16.750Z,10.7312
2023-05-16T15:27:16.824Z,10.7246
2023-05-16T15:28:18.737Z,10.8500
2023-05-16T15:29:18.252Z,10.7585
2023-05-16T15:30:19.697Z,10.7407
2023-05-16T15:31:21.249Z,10.8686
2023-05-16T15:32:22.465Z,10.7744
2023-05-16T15:33:22.657Z,10.7060
2023-05-16T15:34:24.188Z,10.6677
2023-05-16T15:35:25.730Z,10.5891
2023-05-16T15:36:27.629Z,10.6223
2023-05-16T15:37:28.534Z,10.5870
2023-05-16T15:38:30.258Z,10.6604
2023-05-16T15:39:32.373Z,10.6958
2023-05-16T15:40:32.841Z,10.6699
2023-05-16T15:42:35.955Z,10.5886
2023-05-16T15:44:37.020Z,10.6160
2023-05-16T15:45:39.871Z,10.7170
2023-05-16T15:46:38.308Z,10.7141
2023-05-16T15:47:40.094Z,10.6740
2023-05-16T15:48:41.337Z,10.8352
2023-05-16T15:49:42.528Z,10.9347
2023-05-16T15:51:45.504Z,10.6868
2023-05-16T15:52:45.932Z,10.6736
2023-05-16T15:53:45.997Z,10.7240
2023-05-16T15:54:47.656Z,10.6991
2023-05-16T15:55:47.929Z,10.7101
2023-05-16T15:56:49.250Z,10.7367
2023-05-16T15:59:52.831Z,10.6648
2023-05-16T16:00:54.599Z,10.6186
2023-05-16T16:01:54.727Z,10.6241
2023-05-16T16:02:56.882Z,10.6254
2023-05-16T16:03:57.307Z,10.5124
2023-05-16T16:04:59.081Z,10.5867
2023-05-16T16:06:00.378Z,10.5588
2023-05-16T16:07:02.052Z,10.4564
2023-05-16T16:08:03.231Z,10.5224
2023-05-16T16:09:05.212Z,10.4623
2023-05-16T16:10:06.314Z,10.4808
2023-05-16T16:11:07.930Z,10.5001
2023-05-16T16:12:08.637Z,10.4289
2023-05-16T16:13:10.658Z,10.3397
2023-05-16T16:14:12.180Z,10.4077
2023-05-16T16:15:13.069Z,10.4238
2023-05-16T16:16:13.398Z,10.2902
2023-05-16T16:17:15.495Z,10.2712
2023-05-16T16:18:17.613Z,10.2831
2023-05-16T16:19:19.535Z,10.3194
2023-05-16T16:20:21.400Z,10.2836
2023-05-16T16:21:23.461Z,10.2532
2023-05-16T16:22:24.914Z,10.1607
2023-05-16T16:23:26.279Z,10.1237
2023-05-16T16:24:27.914Z,10.2244
2023-05-16T16:25:29.643Z,10.1991
2023-05-16T16:26:30.311Z,10.2056
2023-05-16T16:27:32.141Z,10.1877
2023-05-16T16:28:34.280Z,10.1820